Time;durP1;ratioP1;P1;durP2;ratioP2;P2;SDS_P1;SDS_P2;PMS_P1;PMS_P2;Temp;Humidity;BMP_temperature;BMP_pressure;BME280_temperature;BME280_humidity;BME280_pressure;Samples;Min_cycle;Max_cycle;Signal;HPM_P1;HPM_P2
2021/07/25 00:00:06;;;;;;;4.45;2.50;;;;;;;;;;4975142;28;20483;-69
2021/07/25 00:02:34;;;;;;;3.90;2.58;;;;;;;;;;4972814;28;20023;-69
2021/07/25 00:04:59;;;;;;;3.15;2.60;;;;;;;;;;4972701;28;20019;-70
2021/07/25 00:07:25;;;;;;;2.83;2.20;;;;;;;;;;4972079;28;20057;-69
2021/07/25 00:09:50;;;;;;;3.92;2.45;;;;;;;;;;4972766;28;20038;-70
2021/07/25 00:12:16;;;;;;;3.30;2.45;;;;;;;;;;4972851;28;20042;-70
2021/07/25 00:14:42;;;;;;;3.33;2.40;;;;;;;;;;4972564;28;20019;-69
2021/07/25 00:17:09;;;;;;;4.28;2.38;;;;;;;;;;4971927;28;20030;-70
2021/07/25 00:19:37;;;;;;;3.25;2.33;;;;;;;;;;4972288;28;20027;-69
2021/07/25 00:22:04;;;;;;;5.18;2.35;;;;;;;;;;4972525;28;20113;-70
2021/07/25 00:24:34;;;;;;;3.15;2.15;;;;;;;;;;4972319;28;20038;-70
2021/07/25 00:27:00;;;;;;;5.40;2.00;;;;;;;;;;4972186;28;20022;-69
2021/07/25 00:29:30;;;;;;;3.38;2.22;;;;;;;;;;4972391;28;20057;-69
2021/07/25 00:32:01;;;;;;;5.63;2.00;;;;;;;;;;4972606;28;20059;-70
2021/07/25 00:34:37;;;;;;;2.53;1.95;;;;;;;;;;4972613;28;20043;-69
2021/07/25 00:37:03;;;;;;;4.47;2.55;;;;;;;;;;4972218;28;20033;-69
2021/07/25 00:39:29;;;;;;;3.60;2.05;;;;;;;;;;4972233;28;20446;-69
2021/07/25 00:41:57;;;;;;;3.72;2.30;;;;;;;;;;4981184;28;20026;-69
2021/07/25 00:44:23;;;;;;;4.68;2.38;;;;;;;;;;4993955;28;20049;-69
2021/07/25 00:46:59;;;;;;;2.85;2.20;;;;;;;;;;4995515;28;20022;-69
2021/07/25 00:49:26;;;;;;;3.25;2.05;;;;;;;;;;4975296;28;20471;-70
2021/07/25 00:51:53;;;;;;;3.20;2.40;;;;;;;;;;4983604;28;20112;-69
2021/07/25 00:54:19;;;;;;;3.83;2.00;;;;;;;;;;4995792;28;20142;-69
2021/07/25 00:56:45;;;;;;;3.70;2.17;;;;;;;;;;4994314;28;20038;-69
2021/07/25 00:59:13;;;;;;;3.78;2.20;;;;;;;;;;4977299;28;20286;-69
2021/07/25 01:01:39;;;;;;;4.13;2.80;;;;;;;;;;4976332;28;20026;-69
2021/07/25 01:04:41;;;;;;;3.35;2.40;;;;;;;;;;4976098;28;20590;-69
2021/07/25 01:07:33;;;;;;;2.63;2.10;;;;;;;;;;4973599;28;20541;-69
2021/07/25 01:10:04;;;;;;;4.75;2.60;;;;;;;;;;4976256;28;20015;-69
2021/07/25 01:12:38;;;;;;;2.95;2.13;;;;;;;;;;4975967;28;20031;-69
2021/07/25 01:15:05;;;;;;;3.65;2.30;;;;;;;;;;4976110;28;20019;-69
2021/07/25 01:17:35;;;;;;;2.65;2.20;;;;;;;;;;4975396;28;20030;-69
2021/07/25 01:20:06;;;;;;;3.75;2.38;;;;;;;;;;4976055;28;20097;-69
2021/07/25 01:22:41;;;;;;;2.95;2.22;;;;;;;;;;4976121;28;20022;-69
2021/07/25 01:25:09;;;;;;;2.38;2.03;;;;;;;;;;4975585;28;20026;-69
2021/07/25 01:27:46;;;;;;;4.07;2.55;;;;;;;;;;4975212;28;20019;-69
2021/07/25 01:30:16;;;;;;;3.88;2.30;;;;;;;;;;4975759;28;20035;-69
2021/07/25 01:32:44;;;;;;;3.40;2.20;;;;;;;;;;4975468;28;20030;-69
2021/07/25 01:35:14;;;;;;;3.85;2.35;;;;;;;;;;4974994;28;20046;-69
2021/07/25 01:37:41;;;;;;;3.80;2.30;;;;;;;;;;4975368;28;20399;-69
2021/07/25 01:40:17;;;;;;;4.00;2.60;;;;;;;;;;4975447;28;20019;-69
2021/07/25 01:42:43;;;;;;;3.40;2.15;;;;;;;;;;4990261;28;20038;-69
2021/07/25 01:45:10;;;;;;;3.15;2.20;;;;;;;;;;4985237;28;20115;-69
2021/07/25 01:47:36;;;;;;;3.33;2.20;;;;;;;;;;4975238;28;20434;-69
2021/07/25 01:50:04;;;;;;;2.70;2.13;;;;;;;;;;4975475;28;20027;-69
2021/07/25 01:52:29;;;;;;;4.07;2.00;;;;;;;;;;4975519;28;20486;-69
2021/07/25 01:54:55;;;;;;;3.20;2.40;;;;;;;;;;4974894;28;20019;-69
2021/07/25 01:57:20;;;;;;;4.35;2.60;;;;;;;;;;4975058;28;20031;-69
2021/07/25 01:59:48;;;;;;;3.58;2.40;;;;;;;;;;4974899;28;20038;-69
2021/07/25 02:02:14;;;;;;;3.55;2.63;;;;;;;;;;4975499;28;20332;-69
2021/07/25 02:04:39;;;;;;;3.92;2.63;;;;;;;;;;4974568;28;20065;-69
2021/07/25 02:07:05;;;;;;;5.57;2.72;;;;;;;;;;4974721;28;20588;-69
2021/07/25 02:09:38;;;;;;;3.30;2.53;;;;;;;;;;4974346;28;20038;-69
2021/07/25 02:12:04;;;;;;;3.90;2.78;;;;;;;;;;4973842;28;20018;-69
2021/07/25 02:14:31;;;;;;;3.90;2.70;;;;;;;;;;4974801;28;20513;-69
2021/07/25 02:16:57;;;;;;;3.92;2.38;;;;;;;;;;4973793;28;20440;-69
2021/07/25 02:19:22;;;;;;;2.80;2.00;;;;;;;;;;4974619;28;20031;-69
2021/07/25 02:21:48;;;;;;;3.25;2.20;;;;;;;;;;4973343;28;20031;-69
2021/07/25 02:24:13;;;;;;;5.85;3.50;;;;;;;;;;4974320;28;20493;-69
2021/07/25 02:26:39;;;;;;;3.80;2.50;;;;;;;;;;4974317;28;20038;-69
2021/07/25 02:29:04;;;;;;;4.88;2.40;;;;;;;;;;4974577;28;20050;-69
2021/07/25 02:31:30;;;;;;;4.05;2.58;;;;;;;;;;4974549;28;20058;-69
2021/07/25 02:33:57;;;;;;;4.10;2.85;;;;;;;;;;4974460;28;20090;-69
2021/07/25 02:36:22;;;;;;;4.53;2.78;;;;;;;;;;4974204;28;20033;-69
2021/07/25 02:38:48;;;;;;;3.97;2.95;;;;;;;;;;4974106;28;20023;-69
2021/07/25 02:41:14;;;;;;;4.85;3.17;;;;;;;;;;4973549;28;20311;-69
2021/07/25 02:43:39;;;;;;;4.78;3.08;;;;;;;;;;4973475;28;20026;-69
2021/07/25 02:46:05;;;;;;;3.85;2.80;;;;;;;;;;4973618;28;20486;-69
2021/07/25 02:48:30;;;;;;;4.40;3.00;;;;;;;;;;4973897;28;20118;-69
2021/07/25 02:50:59;;;;;;;3.83;3.17;;;;;;;;;;4974230;28;20110;-69
2021/07/25 02:53:26;;;;;;;4.35;2.78;;;;;;;;;;4954731;28;20034;-69
2021/07/25 02:55:52;;;;;;;4.90;3.10;;;;;;;;;;4968024;28;20092;-69
2021/07/25 02:58:17;;;;;;;5.25;3.05;;;;;;;;;;4974038;28;20027;-69
2021/07/25 03:00:43;;;;;;;3.78;2.85;;;;;;;;;;4973630;28;20026;-70
2021/07/25 03:03:08;;;;;;;4.75;2.92;;;;;;;;;;4974047;28;20500;-69
2021/07/25 03:05:34;;;;;;;3.60;2.88;;;;;;;;;;4973377;28;20035;-69
2021/07/25 03:07:59;;;;;;;5.03;3.20;;;;;;;;;;4973446;28;20110;-70
2021/07/25 03:10:25;;;;;;;4.55;2.83;;;;;;;;;;4973868;28;20626;-69
2021/07/25 03:12:51;;;;;;;3.92;3.10;;;;;;;;;;4973553;28;20034;-69
2021/07/25 03:15:17;;;;;;;5.47;3.60;;;;;;;;;;4973410;28;20045;-69
2021/07/25 03:17:43;;;;;;;4.57;3.40;;;;;;;;;;4973638;28;20029;-69
2021/07/25 03:20:09;;;;;;;4.72;3.67;;;;;;;;;;4973662;28;20030;-69
2021/07/25 03:22:35;;;;;;;5.30;3.60;;;;;;;;;;4973569;28;20105;-69
2021/07/25 03:25:01;;;;;;;3.90;3.15;;;;;;;;;;4973520;28;20050;-69
2021/07/25 03:27:28;;;;;;;4.07;2.60;;;;;;;;;;4973701;28;20214;-69
2021/07/25 03:29:54;;;;;;;5.55;2.63;;;;;;;;;;4973149;28;20046;-69
2021/07/25 03:32:20;;;;;;;5.50;4.00;;;;;;;;;;4973466;28;20034;-69
2021/07/25 03:34:46;;;;;;;4.90;3.95;;;;;;;;;;4972212;28;20046;-69
2021/07/25 03:37:15;;;;;;;5.45;3.17;;;;;;;;;;4973357;28;20038;-69
2021/07/25 03:39:43;;;;;;;4.68;3.03;;;;;;;;;;4973368;28;20410;-69
2021/07/25 03:42:11;;;;;;;5.57;3.70;;;;;;;;;;4983855;28;20041;-69
2021/07/25 03:44:38;;;;;;;5.75;4.13;;;;;;;;;;4976414;28;20503;-69
2021/07/25 03:47:03;;;;;;;5.25;3.60;;;;;;;;;;4973462;28;20031;-69
2021/07/25 03:49:29;;;;;;;3.88;3.40;;;;;;;;;;4973475;28;20018;-69
2021/07/25 03:51:58;;;;;;;3.90;3.42;;;;;;;;;;4973490;28;20463;-70
2021/07/25 03:54:23;;;;;;;5.75;3.50;;;;;;;;;;4972136;28;20054;-69
2021/07/25 03:56:49;;;;;;;4.88;3.20;;;;;;;;;;4973223;28;20085;-69
2021/07/25 03:59:14;;;;;;;3.60;2.88;;;;;;;;;;4972635;28;20027;-69
2021/07/25 04:01:40;;;;;;;4.55;3.20;;;;;;;;;;4972776;28;20476;-69
2021/07/25 04:04:06;;;;;;;2.85;2.28;;;;;;;;;;4973026;28;20084;-69
2021/07/25 04:06:32;;;;;;;3.55;2.40;;;;;;;;;;4972557;28;20045;-69
2021/07/25 04:08:58;;;;;;;3.92;2.50;;;;;;;;;;4972896;28;20034;-69
2021/07/25 04:11:25;;;;;;;4.93;2.58;;;;;;;;;;4972646;28;20030;-70
2021/07/25 04:13:50;;;;;;;3.95;2.40;;;;;;;;;;4972520;28;20074;-69
2021/07/25 04:16:16;;;;;;;3.53;2.38;;;;;;;;;;4972526;28;20023;-70
2021/07/25 04:18:42;;;;;;;4.05;2.38;;;;;;;;;;4971910;28;20033;-69
2021/07/25 04:21:07;;;;;;;3.63;2.10;;;;;;;;;;4972778;28;20418;-69
2021/07/25 04:23:37;;;;;;;3.72;1.90;;;;;;;;;;4972637;28;20031;-70
2021/07/25 04:26:03;;;;;;;5.93;2.10;;;;;;;;;;4972551;28;20031;-70
2021/07/25 04:28:28;;;;;;;4.43;2.10;;;;;;;;;;4972313;28;20394;-70
2021/07/25 04:30:54;;;;;;;2.85;2.10;;;;;;;;;;4972469;28;20106;-70
2021/07/25 04:33:21;;;;;;;2.90;1.90;;;;;;;;;;4972344;28;20031;-70
2021/07/25 04:35:46;;;;;;;2.92;1.60;;;;;;;;;;4972134;28;20031;-70
2021/07/25 04:38:12;;;;;;;2.97;1.60;;;;;;;;;;4972372;28;20081;-70
2021/07/25 04:40:40;;;;;;;3.13;1.70;;;;;;;;;;4972343;28;20038;-70
2021/07/25 04:43:09;;;;;;;3.40;1.55;;;;;;;;;;4989238;28;20489;-70
2021/07/25 04:46:13;;;;;;;3.83;1.52;;;;;;;;;;4973980;28;20031;-70
2021/07/25 04:49:16;;;;;;;3.20;1.80;;;;;;;;;;4968607;28;20039;-70
2021/07/25 04:51:43;;;;;;;2.45;1.50;;;;;;;;;;4977720;28;20061;-71
2021/07/25 04:54:11;;;;;;;3.08;1.77;;;;;;;;;;4991859;28;20109;-70
2021/07/25 04:57:12;;;;;;;4.30;1.67;;;;;;;;;;4991517;28;20110;-70
2021/07/25 04:59:47;;;;;;;3.03;1.48;;;;;;;;;;4990528;28;20042;-70
2021/07/25 05:02:17;;;;;;;2.17;1.35;;;;;;;;;;4977158;28;20066;-70
2021/07/25 05:04:47;;;;;;;2.47;1.40;;;;;;;;;;4971727;28;20381;-70
2021/07/25 05:07:12;;;;;;;3.25;1.50;;;;;;;;;;4971997;28;20034;-70
2021/07/25 05:09:39;;;;;;;1.90;1.30;;;;;;;;;;4972374;28;20037;-71
2021/07/25 05:12:18;;;;;;;2.95;1.40;;;;;;;;;;4970442;28;20141;-70
2021/07/25 05:15:03;;;;;;;2.05;1.27;;;;;;;;;;4972294;28;20034;-71
2021/07/25 05:17:29;;;;;;;3.25;1.48;;;;;;;;;;4972250;28;20031;-70
2021/07/25 05:20:05;;;;;;;1.83;1.30;;;;;;;;;;4971985;28;20448;-70
2021/07/25 05:22:45;;;;;;;4.43;1.30;;;;;;;;;;4971905;28;20435;-71
2021/07/25 05:25:10;;;;;;;2.35;1.20;;;;;;;;;;4971730;28;20498;-71
2021/07/25 05:27:43;;;;;;;2.10;1.10;;;;;;;;;;4972144;28;20041;-72
2021/07/25 05:30:14;;;;;;;2.03;1.02;;;;;;;;;;4973915;28;20031;-71
2021/07/25 05:32:39;;;;;;;1.52;1.05;;;;;;;;;;4975444;28;20384;-71
2021/07/25 05:35:06;;;;;;;2.03;1.10;;;;;;;;;;4975563;28;20042;-71
2021/07/25 05:37:31;;;;;;;2.60;1.13;;;;;;;;;;4975344;28;20034;-71
2021/07/25 05:39:57;;;;;;;3.30;1.13;;;;;;;;;;4975324;28;20023;-71
2021/07/25 05:42:23;;;;;;;3.35;1.10;;;;;;;;;;4987404;28;20026;-71
2021/07/25 05:44:48;;;;;;;3.35;0.93;;;;;;;;;;4994366;28;20034;-71
2021/07/25 05:47:14;;;;;;;3.72;1.38;;;;;;;;;;4987725;28;20390;-71
2021/07/25 05:49:39;;;;;;;4.60;1.00;;;;;;;;;;4975481;28;20046;-72
2021/07/25 05:52:05;;;;;;;1.77;1.02;;;;;;;;;;4983852;28;20581;-71
2021/07/25 05:54:30;;;;;;;3.33;1.05;;;;;;;;;;4994597;28;20029;-71
2021/07/25 05:56:56;;;;;;;1.83;1.10;;;;;;;;;;4990062;28;20035;-71
2021/07/25 05:59:21;;;;;;;2.67;1.27;;;;;;;;;;4975194;28;20034;-72
2021/07/25 06:01:47;;;;;;;4.00;0.93;;;;;;;;;;4974501;28;20371;-71
2021/07/25 06:04:13;;;;;;;3.08;1.08;;;;;;;;;;4974704;28;20036;-71
2021/07/25 06:06:38;;;;;;;1.35;0.80;;;;;;;;;;4974699;28;20019;-71
2021/07/25 06:09:04;;;;;;;1.88;0.80;;;;;;;;;;4974484;28;20072;-70
2021/07/25 06:11:30;;;;;;;6.28;1.05;;;;;;;;;;4974564;28;20026;-71
2021/07/25 06:13:57;;;;;;;1.73;1.00;;;;;;;;;;4974543;28;20027;-71
2021/07/25 06:16:22;;;;;;;3.80;1.00;;;;;;;;;;4974484;28;20130;-72
2021/07/25 06:18:48;;;;;;;4.65;1.00;;;;;;;;;;4974263;28;20102;-71
2021/07/25 06:21:18;;;;;;;2.70;1.00;;;;;;;;;;4973823;28;20360;-71
2021/07/25 06:23:46;;;;;;;2.22;0.70;;;;;;;;;;4974626;28;20037;-71
2021/07/25 06:26:11;;;;;;;2.80;1.00;;;;;;;;;;4974398;28;20110;-71
2021/07/25 06:28:37;;;;;;;2.95;0.80;;;;;;;;;;4974473;28;20101;-70
2021/07/25 06:31:02;;;;;;;2.30;0.80;;;;;;;;;;4973997;28;20509;-71
2021/07/25 06:33:29;;;;;;;2.10;0.90;;;;;;;;;;4974209;28;20023;-71
2021/07/25 06:35:55;;;;;;;2.83;0.90;;;;;;;;;;4972521;28;20030;-71
2021/07/25 06:38:21;;;;;;;2.30;0.88;;;;;;;;;;4973516;28;20085;-73
2021/07/25 06:40:53;;;;;;;4.32;0.98;;;;;;;;;;4972640;28;20106;-72
2021/07/25 06:43:19;;;;;;;1.15;0.80;;;;;;;;;;4954426;28;20494;-72
2021/07/25 06:45:46;;;;;;;2.67;0.90;;;;;;;;;;4954215;28;20031;-72
2021/07/25 06:48:23;;;;;;;2.00;0.70;;;;;;;;;;4966752;28;20122;-72
2021/07/25 06:50:53;;;;;;;1.77;0.75;;;;;;;;;;4973474;28;20503;-72
2021/07/25 06:53:20;;;;;;;1.85;0.80;;;;;;;;;;4992810;28;20033;-71
2021/07/25 06:55:48;;;;;;;3.35;0.90;;;;;;;;;;4992818;28;20019;-72
2021/07/25 06:58:14;;;;;;;3.28;0.90;;;;;;;;;;4980176;28;20034;-71
2021/07/25 07:00:39;;;;;;;3.90;0.93;;;;;;;;;;4973579;28;20061;-73
2021/07/25 07:03:05;;;;;;;2.17;0.93;;;;;;;;;;4973178;28;20059;-72
2021/07/25 07:05:32;;;;;;;6.13;1.13;;;;;;;;;;4973528;28;20136;-72
2021/07/25 07:08:03;;;;;;;4.20;0.80;;;;;;;;;;4973273;28;20081;-72
2021/07/25 07:10:31;;;;;;;2.70;0.68;;;;;;;;;;4973688;28;20035;-72
2021/07/25 07:12:58;;;;;;;2.78;0.80;;;;;;;;;;4973045;28;20031;-71
2021/07/25 07:15:25;;;;;;;6.13;0.80;;;;;;;;;;4972524;28;20045;-72
2021/07/25 07:17:52;;;;;;;2.35;0.80;;;;;;;;;;4969235;28;20030;-72
2021/07/25 07:20:18;;;;;;;0.95;0.60;;;;;;;;;;4973899;28;20058;-74
2021/07/25 07:22:57;;;;;;;1.77;0.70;;;;;;;;;;4965363;28;20041;-71
2021/07/25 07:25:24;;;;;;;1.27;0.70;;;;;;;;;;4973005;28;20031;-72
2021/07/25 07:27:51;;;;;;;1.35;0.80;;;;;;;;;;4973589;28;20030;-73
2021/07/25 07:30:17;;;;;;;3.55;0.82;;;;;;;;;;4972878;28;20070;-72
2021/07/25 07:32:42;;;;;;;2.85;1.25;;;;;;;;;;4972360;28;20035;-72
2021/07/25 07:35:08;;;;;;;4.03;0.90;;;;;;;;;;4971878;28;20425;-73
2021/07/25 07:37:34;;;;;;;2.85;0.70;;;;;;;;;;4971849;28;20031;-73
2021/07/25 07:39:59;;;;;;;5.93;1.00;;;;;;;;;;4972567;28;20054;-73
2021/07/25 07:42:25;;;;;;;2.25;0.90;;;;;;;;;;4972464;28;20409;-72
2021/07/25 07:44:50;;;;;;;2.60;0.80;;;;;;;;;;4972496;28;20058;-72
2021/07/25 07:47:16;;;;;;;3.65;0.90;;;;;;;;;;4973475;28;20031;-72
2021/07/25 07:49:41;;;;;;;1.85;0.88;;;;;;;;;;4972715;28;20026;-72
2021/07/25 07:52:07;;;;;;;1.95;0.60;;;;;;;;;;4982263;28;20023;-72
2021/07/25 07:54:34;;;;;;;3.47;0.90;;;;;;;;;;4992885;28;20523;-72
2021/07/25 07:57:00;;;;;;;3.38;0.82;;;;;;;;;;4992189;28;20021;-72
2021/07/25 07:59:26;;;;;;;3.17;0.90;;;;;;;;;;4975693;28;20062;-72
2021/07/25 08:01:52;;;;;;;1.20;0.80;;;;;;;;;;4973146;28;20427;-72
2021/07/25 08:04:18;;;;;;;2.30;0.70;;;;;;;;;;4973104;28;20505;-71
2021/07/25 08:06:45;;;;;;;2.33;0.88;;;;;;;;;;4973146;28;20240;-73
2021/07/25 08:09:12;;;;;;;3.30;1.00;;;;;;;;;;4972545;28;20023;-73
2021/07/25 08:11:43;;;;;;;3.08;0.90;;;;;;;;;;4973053;28;20092;-72
2021/07/25 08:14:12;;;;;;;1.35;0.82;;;;;;;;;;4971346;28;20023;-73
2021/07/25 08:16:38;;;;;;;3.28;1.00;;;;;;;;;;4972962;28;20026;-72
2021/07/25 08:19:04;;;;;;;1.73;0.75;;;;;;;;;;4972380;28;20053;-72
2021/07/25 08:21:30;;;;;;;1.17;0.80;;;;;;;;;;4972695;28;20467;-72
2021/07/25 08:23:56;;;;;;;1.83;0.70;;;;;;;;;;4972566;28;20035;-72
2021/07/25 08:26:21;;;;;;;3.22;1.05;;;;;;;;;;4972684;28;20053;-72
2021/07/25 08:28:47;;;;;;;2.55;0.90;;;;;;;;;;4972247;28;20031;-72
2021/07/25 08:31:12;;;;;;;1.00;0.85;;;;;;;;;;4971890;28;20655;-72
2021/07/25 08:33:38;;;;;;;3.13;0.90;;;;;;;;;;4972428;28;20050;-72
2021/07/25 08:36:04;;;;;;;7.80;1.00;;;;;;;;;;4972464;28;20359;-72
2021/07/25 08:38:30;;;;;;;3.55;0.90;;;;;;;;;;4972721;28;20085;-72
2021/07/25 08:41:28;;;;;;;2.08;0.80;;;;;;;;;;4972269;28;20035;-72
2021/07/25 08:44:22;;;;;;;1.35;0.73;;;;;;;;;;4970995;28;20043;-72
2021/07/25 08:46:54;;;;;;;3.40;1.00;;;;;;;;;;4967811;28;20057;-72
2021/07/25 08:49:41;;;;;;;1.35;0.75;;;;;;;;;;4971594;28;20515;-72
2021/07/25 08:52:16;;;;;;;2.25;0.75;;;;;;;;;;4980178;28;20026;-73
2021/07/25 08:54:42;;;;;;;6.68;0.90;;;;;;;;;;4991909;28;20118;-72
2021/07/25 08:57:16;;;;;;;2.95;0.85;;;;;;;;;;4980184;28;20030;-71
2021/07/25 08:59:43;;;;;;;3.45;0.90;;;;;;;;;;4972243;28;20037;-72
2021/07/25 09:02:19;;;;;;;3.97;1.00;;;;;;;;;;4973012;28;20031;-71
2021/07/25 09:04:46;;;;;;;5.47;1.08;;;;;;;;;;4973625;28;20075;-73
2021/07/25 09:07:11;;;;;;;2.97;0.90;;;;;;;;;;4975515;28;20105;-73
2021/07/25 09:09:38;;;;;;;0.85;0.63;;;;;;;;;;4975675;28;20076;-71
2021/07/25 09:12:04;;;;;;;2.78;0.80;;;;;;;;;;4975502;28;20065;-72
2021/07/25 09:14:30;;;;;;;2.83;0.90;;;;;;;;;;4974496;28;20050;-72
2021/07/25 09:16:56;;;;;;;4.20;0.80;;;;;;;;;;4975598;28;20121;-72
2021/07/25 09:19:22;;;;;;;3.95;0.77;;;;;;;;;;4975728;28;20105;-72
2021/07/25 09:21:51;;;;;;;3.40;0.90;;;;;;;;;;4975673;28;20096;-73
2021/07/25 09:24:21;;;;;;;3.85;0.80;;;;;;;;;;4975435;28;20034;-72
2021/07/25 09:26:54;;;;;;;1.95;0.80;;;;;;;;;;4975523;28;20121;-72
2021/07/25 09:29:23;;;;;;;1.58;0.70;;;;;;;;;;4975990;28;20378;-71
2021/07/25 09:31:48;;;;;;;4.43;0.80;;;;;;;;;;4975176;28;20070;-72
2021/07/25 09:34:40;;;;;;;8.60;1.15;;;;;;;;;;4974951;28;20507;-72
2021/07/25 09:37:10;;;;;;;3.40;0.70;;;;;;;;;;4975036;28;20027;-72
2021/07/25 09:39:46;;;;;;;1.80;0.88;;;;;;;;;;4973816;28;20027;-72
2021/07/25 09:42:12;;;;;;;2.60;1.30;;;;;;;;;;4973559;28;20037;-72
2021/07/25 09:44:45;;;;;;;4.30;1.00;;;;;;;;;;4975862;28;20383;-72
2021/07/25 09:47:25;;;;;;;1.67;0.60;;;;;;;;;;4975439;28;20030;-72
2021/07/25 09:49:50;;;;;;;4.78;0.82;;;;;;;;;;4975095;28;20085;-73
2021/07/25 09:52:16;;;;;;;5.22;1.00;;;;;;;;;;4986541;28;20429;-72
2021/07/25 09:54:42;;;;;;;2.33;0.90;;;;;;;;;;4975748;28;20061;-74
2021/07/25 09:57:10;;;;;;;2.92;0.80;;;;;;;;;;4975576;28;20537;-73
2021/07/25 09:59:36;;;;;;;4.10;0.90;;;;;;;;;;4975698;28;20034;-71
2021/07/25 10:02:01;;;;;;;4.00;0.80;;;;;;;;;;4975588;28;20053;-72
2021/07/25 10:04:27;;;;;;;4.30;0.80;;;;;;;;;;4975272;28;20027;-73
2021/07/25 10:06:54;;;;;;;5.40;0.80;;;;;;;;;;4971547;28;20022;-72
2021/07/25 10:09:22;;;;;;;3.13;0.90;;;;;;;;;;4973620;28;20038;-72
2021/07/25 10:11:57;;;;;;;1.88;0.80;;;;;;;;;;4974677;28;20410;-73
2021/07/25 10:14:24;;;;;;;2.28;0.70;;;;;;;;;;4975445;28;20370;-73
2021/07/25 10:16:55;;;;;;;1.55;0.73;;;;;;;;;;4965132;28;20034;-72
2021/07/25 10:19:27;;;;;;;3.20;0.80;;;;;;;;;;4974743;28;20037;-72
2021/07/25 10:21:57;;;;;;;4.68;1.10;;;;;;;;;;4972950;28;20022;-72
2021/07/25 10:24:24;;;;;;;6.45;1.10;;;;;;;;;;4974015;28;20035;-72
2021/07/25 10:26:53;;;;;;;1.95;0.70;;;;;;;;;;4974718;28;20110;-72
2021/07/25 10:29:23;;;;;;;1.15;0.70;;;;;;;;;;4973770;28;20487;-72
2021/07/25 10:31:51;;;;;;;7.80;0.98;;;;;;;;;;4978702;28;20018;-72
2021/07/25 10:34:20;;;;;;;5.55;1.10;;;;;;;;;;4973850;28;20051;-72
2021/07/25 10:36:45;;;;;;;1.30;0.70;;;;;;;;;;4976009;28;20048;-73
2021/07/25 10:39:12;;;;;;;3.95;0.80;;;;;;;;;;4974331;28;20023;-73
2021/07/25 10:41:40;;;;;;;2.17;1.00;;;;;;;;;;4976816;28;20027;-73
2021/07/25 10:44:05;;;;;;;5.30;0.93;;;;;;;;;;4972763;28;20031;-72
2021/07/25 10:46:32;;;;;;;3.28;1.08;;;;;;;;;;4972592;28;20375;-73
2021/07/25 10:49:03;;;;;;;3.92;1.00;;;;;;;;;;4966407;28;20480;-73
2021/07/25 10:51:28;;;;;;;3.00;1.00;;;;;;;;;;4976653;28;20085;-73
2021/07/25 10:54:23;;;;;;;4.22;1.02;;;;;;;;;;4973363;28;20407;-73
2021/07/25 10:57:06;;;;;;;3.17;0.90;;;;;;;;;;4973115;28;20355;-73
2021/07/25 10:59:52;;;;;;;3.20;0.80;;;;;;;;;;4971236;28;20026;-73
2021/07/25 11:02:23;;;;;;;3.10;0.80;;;;;;;;;;4972036;28;20035;-72
2021/07/25 11:04:51;;;;;;;2.00;0.68;;;;;;;;;;4972309;28;20035;-76
2021/07/25 11:07:23;;;;;;;4.57;0.88;;;;;;;;;;4972141;28;20505;-76
2021/07/25 11:10:13;;;;;;;5.25;1.02;;;;;;;;;;4959290;28;20027;-77
2021/07/25 11:12:47;;;;;;;3.10;0.82;;;;;;;;;;4974852;28;20027;-76
2021/07/25 11:15:31;;;;;;;3.53;0.80;;;;;;;;;;4970154;28;20387;-78
2021/07/25 11:18:01;;;;;;;2.83;1.00;;;;;;;;;;4973790;28;20110;-74
2021/07/25 11:20:35;;;;;;;2.08;0.90;;;;;;;;;;4975104;28;20453;-74
2021/07/25 11:23:05;;;;;;;2.28;0.80;;;;;;;;;;4974264;28;20053;-76
2021/07/25 11:25:35;;;;;;;3.50;0.98;;;;;;;;;;4974643;28;20079;-74
2021/07/25 11:28:09;;;;;;;2.15;1.10;;;;;;;;;;4973808;28;20038;-73
2021/07/25 11:30:53;;;;;;;1.38;0.98;;;;;;;;;;4973961;28;20027;-75
2021/07/25 11:33:40;;;;;;;4.82;1.33;;;;;;;;;;4970423;28;20097;-75
2021/07/25 11:36:10;;;;;;;4.78;0.95;;;;;;;;;;4970132;28;20474;-73
2021/07/25 11:38:38;;;;;;;2.90;0.75;;;;;;;;;;4972034;28;20129;-77
2021/07/25 11:41:05;;;;;;;2.10;0.90;;;;;;;;;;4973216;28;20308;-76
2021/07/25 11:43:50;;;;;;;3.28;0.90;;;;;;;;;;4973589;28;20039;-75
2021/07/25 11:46:42;;;;;;;1.67;0.80;;;;;;;;;;4976147;28;20038;-75
2021/07/25 11:49:07;;;;;;;1.80;0.95;;;;;;;;;;4973309;28;20074;-74
2021/07/25 11:51:34;;;;;;;1.88;0.90;;;;;;;;;;4978688;28;20590;-74
2021/07/25 11:54:00;;;;;;;5.07;1.05;;;;;;;;;;4974549;28;20027;-75
2021/07/25 11:56:27;;;;;;;2.50;0.80;;;;;;;;;;4973037;28;20117;-74
2021/07/25 11:59:07;;;;;;;4.05;0.93;;;;;;;;;;4973331;28;20046;-75
2021/07/25 12:01:35;;;;;;;4.78;1.05;;;;;;;;;;4972756;28;20034;-74
2021/07/25 12:04:26;;;;;;;5.22;0.95;;;;;;;;;;4974803;28;20490;-74
2021/07/25 12:06:58;;;;;;;4.82;1.10;;;;;;;;;;4953693;28;20050;-76
2021/07/25 12:09:23;;;;;;;4.32;1.10;;;;;;;;;;4968697;28;20022;-75
2021/07/25 12:11:58;;;;;;;3.88;1.00;;;;;;;;;;4972866;28;20027;-75
2021/07/25 12:14:31;;;;;;;2.92;0.77;;;;;;;;;;4972918;28;20489;-74
2021/07/25 12:16:57;;;;;;;2.85;1.10;;;;;;;;;;4955933;28;20026;-74
2021/07/25 12:19:23;;;;;;;5.38;0.82;;;;;;;;;;4972367;28;20375;-75
2021/07/25 12:22:03;;;;;;;2.70;1.02;;;;;;;;;;4972678;28;20027;-75
2021/07/25 12:24:31;;;;;;;1.77;0.70;;;;;;;;;;4971149;28;20083;-76
2021/07/25 12:26:57;;;;;;;4.45;1.10;;;;;;;;;;4971700;28;20109;-75
2021/07/25 12:29:42;;;;;;;5.38;0.98;;;;;;;;;;4972855;28;20093;-75
2021/07/25 12:32:30;;;;;;;4.30;1.15;;;;;;;;;;4971105;28;20635;-74
2021/07/25 12:35:08;;;;;;;5.05;1.10;;;;;;;;;;4973751;28;20495;-74
2021/07/25 12:37:47;;;;;;;1.73;0.90;;;;;;;;;;4952962;28;20054;-74
2021/07/25 12:40:24;;;;;;;3.00;0.95;;;;;;;;;;4951882;29;20042;-74
2021/07/25 12:43:02;;;;;;;3.65;0.90;;;;;;;;;;4973657;28;20033;-74
2021/07/25 12:45:33;;;;;;;2.20;1.08;;;;;;;;;;4972560;28;20109;-73
2021/07/25 12:48:20;;;;;;;1.80;0.80;;;;;;;;;;4972990;28;20042;-74
2021/07/25 12:50:50;;;;;;;3.40;1.00;;;;;;;;;;4970478;28;20041;-74
2021/07/25 12:53:35;;;;;;;1.50;1.10;;;;;;;;;;4981211;28;20027;-73
2021/07/25 12:56:22;;;;;;;6.43;1.10;;;;;;;;;;4971896;28;20050;-73
2021/07/25 12:58:53;;;;;;;3.15;1.10;;;;;;;;;;4952564;28;20043;-74
2021/07/25 13:04:04;;;;;;;3.15;1.00;;;;;;;;;;4972947;28;20490;-76
2021/07/25 13:06:38;;;;;;;;;;;;;;;;;;4964151;28;20113;-74
2021/07/25 13:09:12;;;;;;;3.10;0.80;;;;;;;;;;4978007;28;19957;-74
2021/07/25 13:11:45;;;;;;;2.33;1.00;;;;;;;;;;4988209;28;20077;-75
2021/07/25 13:14:13;;;;;;;2.25;0.93;;;;;;;;;;4986271;28;20011;-74
2021/07/25 13:16:47;;;;;;;3.97;0.88;;;;;;;;;;4972153;28;20475;-73
2021/07/25 13:19:13;;;;;;;3.97;1.10;;;;;;;;;;4971284;28;20019;-73
2021/07/25 13:21:39;;;;;;;3.22;0.80;;;;;;;;;;4971217;28;20038;-75
2021/07/25 13:24:05;;;;;;;2.03;1.00;;;;;;;;;;4972051;28;20031;-76
2021/07/25 13:26:31;;;;;;;1.73;0.90;;;;;;;;;;4957331;28;20102;-75
2021/07/25 13:28:57;;;;;;;2.67;0.90;;;;;;;;;;4952840;28;20122;-74
2021/07/25 13:31:23;;;;;;;4.57;0.88;;;;;;;;;;4952964;28;20038;-75
2021/07/25 13:33:50;;;;;;;1.67;0.70;;;;;;;;;;4952812;28;20047;-74
2021/07/25 13:36:17;;;;;;;5.05;0.90;;;;;;;;;;4952781;28;20086;-74
2021/07/25 13:38:44;;;;;;;4.10;0.90;;;;;;;;;;4975672;28;20014;-74
2021/07/25 13:41:10;;;;;;;3.08;1.00;;;;;;;;;;4976964;28;20030;-75
2021/07/25 13:43:39;;;;;;;1.27;0.75;;;;;;;;;;4974782;28;20041;-74
2021/07/25 13:46:08;;;;;;;2.25;0.90;;;;;;;;;;4981059;28;20019;-74
2021/07/25 13:48:35;;;;;;;1.85;0.80;;;;;;;;;;4963392;28;20069;-75
2021/07/25 13:51:08;;;;;;;2.15;1.05;;;;;;;;;;4973498;28;20033;-74
2021/07/25 13:53:35;;;;;;;1.23;0.80;;;;;;;;;;4975774;28;20023;-75
2021/07/25 13:56:05;;;;;;;2.55;0.98;;;;;;;;;;4971814;28;20422;-74
2021/07/25 13:58:31;;;;;;;1.35;0.90;;;;;;;;;;4975254;28;20026;-75
2021/07/25 14:00:57;;;;;;;2.30;1.08;;;;;;;;;;4974886;28;20089;-74
2021/07/25 14:03:22;;;;;;;4.00;1.10;;;;;;;;;;4975293;28;20027;-73
2021/07/25 14:05:47;;;;;;;2.97;1.00;;;;;;;;;;4975528;28;20027;-74
2021/07/25 14:08:14;;;;;;;2.35;0.88;;;;;;;;;;4973883;28;20038;-73
2021/07/25 14:10:40;;;;;;;5.70;1.00;;;;;;;;;;4974983;28;20098;-74
2021/07/25 14:13:06;;;;;;;2.75;0.93;;;;;;;;;;4974923;28;20058;-75
2021/07/25 14:15:35;;;;;;;2.83;1.10;;;;;;;;;;4974987;28;20109;-75
2021/07/25 14:18:02;;;;;;;1.38;0.82;;;;;;;;;;4974625;28;20058;-74
2021/07/25 14:20:29;;;;;;;2.65;1.15;;;;;;;;;;4974713;28;20062;-75
2021/07/25 14:22:54;;;;;;;2.15;0.82;;;;;;;;;;4974361;28;20030;-74
2021/07/25 14:25:20;;;;;;;1.70;1.00;;;;;;;;;;4975356;28;20035;-74
2021/07/25 14:27:47;;;;;;;1.73;0.60;;;;;;;;;;4975783;28;20062;-74
2021/07/25 14:30:13;;;;;;;2.88;1.00;;;;;;;;;;4974671;28;20094;-76
2021/07/25 14:32:40;;;;;;;1.45;0.70;;;;;;;;;;4974845;28;20027;-75
2021/07/25 14:35:08;;;;;;;2.60;1.02;;;;;;;;;;4964536;28;20065;-75
2021/07/25 14:37:34;;;;;;;1.98;0.80;;;;;;;;;;4955363;28;20034;-75
2021/07/25 14:39:59;;;;;;;2.30;1.10;;;;;;;;;;4966796;28;20019;-74
2021/07/25 14:42:25;;;;;;;2.22;0.90;;;;;;;;;;4974328;28;20035;-75
2021/07/25 14:44:52;;;;;;;1.95;0.80;;;;;;;;;;4974361;28;20463;-75
2021/07/25 14:47:18;;;;;;;2.65;0.95;;;;;;;;;;4975325;28;20027;-74
2021/07/25 14:49:43;;;;;;;3.67;0.80;;;;;;;;;;4975155;28;20023;-75
2021/07/25 14:52:09;;;;;;;2.20;1.00;;;;;;;;;;4983777;28;20470;-74
2021/07/25 14:54:38;;;;;;;13.57;1.30;;;;;;;;;;4993269;28;20034;-75
2021/07/25 14:57:05;;;;;;;1.35;0.75;;;;;;;;;;4993453;28;20531;-72